createdAt,value
2018-09-06T00:01:00.173Z,11.97
2018-09-06T00:03:28.285Z,11.80
2018-09-06T00:05:56.008Z,10.83
2018-09-06T00:08:24.084Z,11.77
2018-09-06T00:10:51.967Z,11.53
2018-09-06T00:13:19.781Z,11.53
2018-09-06T00:15:47.871Z,11.77
2018-09-06T00:18:15.588Z,11.97
2018-09-06T00:20:43.347Z,9.77
2018-09-06T00:23:11.200Z,11.27
2018-09-06T00:25:42.677Z,10.53
2018-09-06T00:28:10.431Z,10.23
2018-09-06T00:30:38.104Z,10.40
2018-09-06T00:33:05.843Z,11.23
2018-09-06T00:35:34.056Z,11.90
2018-09-06T00:38:01.907Z,11.33
2018-09-06T00:40:29.591Z,14.03
2018-09-06T00:42:57.431Z,10.73
2018-09-06T00:45:25.204Z,12.17
2018-09-06T00:47:52.898Z,10.87
2018-09-06T00:50:21.378Z,12.17
2018-09-06T00:52:50.349Z,12.30
2018-09-06T00:55:18.830Z,10.37
2018-09-06T00:57:46.655Z,12.17
2018-09-06T01:00:14.443Z,10.93
2018-09-06T01:02:42.594Z,11.27
2018-09-06T01:05:10.318Z,12.50
2018-09-06T01:07:38.035Z,12.07
2018-09-06T01:10:06.850Z,11.83
2018-09-06T01:12:34.730Z,11.47
2018-09-06T01:15:02.818Z,12.00
2018-09-06T01:17:30.535Z,12.90
2018-09-06T01:19:58.255Z,11.80
2018-09-06T01:22:26.037Z,12.37
2018-09-06T01:24:54.071Z,12.33
2018-09-06T01:27:21.754Z,12.70
2018-09-06T01:29:49.531Z,11.47
2018-09-06T01:32:20.738Z,11.70
2018-09-06T01:34:48.533Z,12.53
2018-09-06T01:37:17.500Z,12.30
2018-09-06T01:39:45.247Z,11.70
2018-09-06T01:42:13.032Z,13.10
2018-09-06T01:44:40.815Z,11.30
2018-09-06T01:47:08.538Z,12.80
2018-09-06T01:49:36.475Z,11.33
2018-09-06T01:52:04.194Z,12.07
2018-09-06T01:54:31.957Z,10.97
2018-09-06T01:56:59.715Z,11.70
2018-09-06T01:59:32.983Z,11.50
2018-09-06T02:02:00.773Z,14.67
2018-09-06T02:04:28.463Z,12.20
2018-09-06T02:06:56.203Z,10.87
2018-09-06T02:09:23.987Z,11.53
2018-09-06T02:11:51.657Z,10.87
2018-09-06T02:14:19.383Z,11.97
2018-09-06T02:16:47.219Z,10.77
2018-09-06T02:19:14.940Z,10.80
2018-09-06T02:21:42.735Z,11.70
2018-09-06T02:24:10.435Z,12.13
2018-09-06T02:26:38.195Z,11.77
2018-09-06T02:29:05.943Z,13.97
2018-09-06T02:31:33.695Z,12.33
2018-09-06T02:34:01.737Z,11.17
2018-09-06T02:36:29.520Z,12.93
2018-09-06T02:38:57.255Z,12.30
2018-09-06T02:41:25.172Z,12.20
2018-09-06T02:43:52.899Z,13.20
2018-09-06T02:46:20.665Z,12.17
2018-09-06T02:48:48.496Z,12.03
2018-09-06T02:51:17.475Z,13.10
2018-09-06T02:53:45.273Z,13.27
2018-09-06T02:56:13.593Z,12.83
2018-09-06T02:58:41.439Z,12.03
2018-09-06T03:01:09.490Z,12.53
2018-09-06T03:06:38.770Z,14.33
2018-09-06T03:09:07.547Z,11.83
2018-09-06T03:11:41.497Z,13.67
2018-09-06T03:14:09.659Z,13.00
2018-09-06T03:16:37.456Z,12.70
2018-09-06T03:19:05.173Z,11.53
2018-09-06T03:21:32.848Z,12.33
2018-09-06T03:24:01.000Z,12.83
2018-09-06T03:26:28.667Z,16.77
2018-09-06T03:28:56.812Z,13.47
2018-09-06T03:31:24.496Z,12.80
2018-09-06T03:33:52.281Z,12.17
2018-09-06T03:36:19.985Z,11.67
2018-09-06T03:38:47.700Z,12.57
2018-09-06T03:41:15.680Z,12.40
2018-09-06T03:43:43.432Z,11.97
2018-09-06T03:46:11.286Z,11.10
2018-09-06T03:48:39.068Z,11.30
2018-09-06T03:51:06.800Z,11.53
2018-09-06T03:53:34.970Z,11.60
2018-09-06T03:56:02.759Z,11.37
2018-09-06T03:58:30.568Z,12.57
2018-09-06T04:00:58.282Z,16.00
2018-09-06T04:03:26.071Z,12.03
2018-09-06T04:05:53.790Z,13.23
2018-09-06T04:08:21.619Z,14.47
2018-09-06T04:10:49.347Z,13.90
2018-09-06T04:13:17.060Z,12.33
2018-09-06T04:15:44.754Z,12.23
2018-09-06T04:18:12.745Z,14.57
2018-09-06T04:20:40.462Z,11.63
2018-09-06T04:23:08.134Z,11.37
2018-09-06T04:25:36.092Z,16.03
2018-09-06T04:28:03.877Z,14.40
2018-09-06T04:30:31.624Z,11.50
2018-09-06T04:32:59.351Z,14.47
2018-09-06T04:35:27.302Z,12.37
2018-09-06T04:37:55.125Z,13.13
2018-09-06T04:40:22.927Z,12.17
2018-09-06T04:42:54.277Z,13.57
2018-09-06T04:45:21.947Z,14.60
2018-09-06T04:47:49.813Z,11.77
2018-09-06T04:50:17.604Z,11.60
2018-09-06T04:52:45.325Z,14.20
2018-09-06T04:55:13.148Z,11.53
2018-09-06T04:57:40.863Z,12.97
2018-09-06T05:00:08.671Z,12.93
2018-09-06T05:02:36.364Z,13.03
2018-09-06T05:05:04.435Z,11.20
2018-09-06T05:07:32.203Z,11.83
2018-09-06T05:09:59.888Z,12.27
2018-09-06T05:12:28.043Z,11.57
2018-09-06T05:14:55.735Z,12.83
2018-09-06T05:17:23.464Z,12.20
2018-09-06T05:19:51.216Z,12.83
2018-09-06T05:22:19.207Z,12.50
2018-09-06T05:24:46.897Z,11.60
2018-09-06T05:27:14.746Z,11.93
2018-09-06T05:29:42.424Z,11.00
2018-09-06T05:32:10.280Z,13.73
2018-09-06T05:34:38.039Z,12.27
2018-09-06T05:37:05.975Z,12.07
2018-09-06T05:39:34.026Z,11.50
2018-09-06T05:42:08.436Z,13.37
2018-09-06T05:44:36.160Z,12.43
2018-09-06T05:47:03.942Z,11.67
2018-09-06T05:49:31.623Z,11.73
2018-09-06T05:51:59.472Z,11.37
2018-09-06T05:54:27.893Z,11.37
2018-09-06T05:56:55.839Z,12.07
2018-09-06T05:59:26.890Z,11.93
2018-09-06T06:01:54.608Z,14.13
2018-09-06T06:04:22.379Z,14.33
2018-09-06T06:06:50.195Z,12.00
2018-09-06T06:09:18.031Z,14.33
2018-09-06T06:11:45.815Z,11.80
2018-09-06T06:14:13.845Z,11.07
2018-09-06T06:16:41.553Z,13.23
2018-09-06T06:19:09.305Z,10.70
2018-09-06T06:21:37.730Z,14.27
2018-09-06T06:24:05.647Z,11.30
2018-09-06T06:26:33.384Z,12.70
2018-09-06T06:29:01.250Z,11.57
2018-09-06T06:31:29.036Z,11.07
2018-09-06T06:33:56.929Z,11.23
2018-09-06T06:36:24.633Z,11.43
2018-09-06T06:38:52.460Z,11.40
2018-09-06T06:41:20.194Z,12.83
2018-09-06T06:43:48.019Z,11.70
2018-09-06T06:46:15.800Z,11.50
2018-09-06T06:48:43.567Z,11.30
2018-09-06T06:51:11.432Z,10.80
2018-09-06T06:53:39.167Z,10.57
2018-09-06T06:56:06.962Z,11.53
2018-09-06T06:58:34.832Z,10.17
2018-09-06T07:01:02.776Z,11.07
2018-09-06T07:03:30.437Z,10.83
2018-09-06T07:05:58.511Z,10.37
2018-09-06T07:08:26.279Z,10.93
2018-09-06T07:10:53.927Z,10.60
2018-09-06T07:13:21.639Z,9.27
2018-09-06T07:15:49.292Z,10.07
2018-09-06T07:18:17.143Z,10.70
2018-09-06T07:20:44.788Z,9.43
2018-09-06T07:23:12.584Z,8.23
2018-09-06T07:25:40.275Z,9.63
2018-09-06T07:28:08.091Z,10.80
2018-09-06T07:30:35.948Z,9.17
2018-09-06T07:33:03.627Z,9.43
2018-09-06T07:35:31.559Z,8.40
2018-09-06T07:37:59.420Z,7.33
2018-09-06T07:40:27.230Z,9.30
2018-09-06T07:42:55.315Z,7.47
2018-09-06T07:45:23.026Z,7.93
2018-09-06T07:47:50.878Z,6.07
2018-09-06T07:50:18.980Z,6.70
2018-09-06T07:52:46.719Z,6.37
2018-09-06T07:55:14.499Z,6.63
2018-09-06T07:57:42.292Z,6.57
2018-09-06T08:00:10.399Z,5.83
2018-09-06T08:02:38.124Z,5.87
2018-09-06T08:05:05.947Z,7.50
2018-09-06T08:07:33.175Z,8.77
2018-09-06T08:10:01.508Z,7.13
2018-09-06T08:12:29.298Z,6.67
2018-09-06T08:14:57.191Z,6.10
2018-09-06T08:17:24.926Z,7.00
2018-09-06T08:19:52.690Z,6.03
2018-09-06T08:22:20.548Z,6.93
2018-09-06T08:24:48.284Z,6.90
2018-09-06T08:27:16.249Z,10.00
2018-09-06T08:29:44.099Z,10.70
2018-09-06T08:32:12.042Z,8.57
2018-09-06T08:34:39.764Z,8.57
2018-09-06T08:37:07.484Z,9.50
2018-09-06T08:39:35.240Z,8.87
2018-09-06T08:42:03.046Z,11.17
2018-09-06T08:44:30.831Z,7.97
2018-09-06T08:46:58.688Z,9.70
2018-09-06T08:49:26.411Z,12.83
2018-09-06T08:51:54.264Z,9.43
2018-09-06T08:54:21.967Z,11.87
2018-09-06T08:56:49.655Z,9.23
2018-09-06T08:59:17.414Z,8.30
2018-09-06T09:01:45.164Z,7.90
2018-09-06T09:04:12.914Z,7.80
2018-09-06T09:06:40.756Z,7.40
2018-09-06T09:09:15.200Z,6.13
2018-09-06T09:11:42.986Z,9.07
2018-09-06T09:14:10.771Z,7.67
2018-09-06T09:16:38.570Z,11.70
2018-09-06T09:19:06.984Z,10.77
2018-09-06T09:21:34.848Z,7.60
2018-09-06T09:24:03.996Z,6.53
2018-09-06T09:26:32.007Z,20.53
2018-09-06T09:28:59.776Z,7.50
2018-09-06T09:31:27.516Z,7.00
2018-09-06T09:33:55.759Z,6.77
2018-09-06T09:36:23.567Z,6.43
2018-09-06T09:38:51.343Z,8.93
2018-09-06T09:41:19.516Z,6.00
2018-09-06T09:43:47.271Z,5.47
2018-09-06T09:48:42.291Z,5.37
2018-09-06T09:51:10.040Z,7.70
2018-09-06T09:53:38.128Z,6.37
2018-09-06T09:56:05.995Z,6.03
2018-09-06T09:58:33.846Z,5.30
2018-09-06T10:01:01.791Z,4.70
2018-09-06T10:03:35.290Z,5.83
2018-09-06T10:06:08.797Z,5.50
2018-09-06T10:08:42.238Z,5.33
2018-09-06T10:11:10.115Z,7.00
2018-09-06T10:13:37.855Z,6.30
2018-09-06T10:16:05.770Z,5.27
2018-09-06T10:18:33.600Z,6.10
2018-09-06T10:21:01.387Z,7.57
2018-09-06T10:23:29.221Z,6.20
2018-09-06T10:25:57.102Z,6.13
2018-09-06T10:28:24.895Z,6.70
2018-09-06T10:30:52.635Z,6.47
2018-09-06T10:33:20.349Z,6.77
2018-09-06T10:35:48.207Z,4.53
2018-09-06T10:38:16.247Z,5.20
2018-09-06T10:40:44.029Z,5.67
2018-09-06T10:43:11.816Z,5.90
2018-09-06T10:45:39.583Z,4.47
2018-09-06T10:48:07.305Z,6.27
2018-09-06T10:50:35.080Z,5.83
2018-09-06T10:53:02.800Z,5.93
2018-09-06T10:55:30.677Z,5.17
2018-09-06T10:57:58.503Z,5.83
2018-09-06T11:00:27.931Z,4.93
2018-09-06T11:02:56.543Z,5.63
2018-09-06T11:05:24.235Z,5.30
2018-09-06T11:07:52.052Z,5.27
2018-09-06T11:10:20.070Z,6.30
2018-09-06T11:12:47.891Z,11.57
2018-09-06T11:15:15.632Z,5.00
2018-09-06T11:17:44.005Z,5.43
2018-09-06T11:20:11.814Z,5.23
2018-09-06T11:22:39.784Z,4.83
2018-09-06T11:25:08.124Z,5.47
2018-09-06T11:27:39.389Z,5.87
2018-09-06T11:30:07.275Z,5.87
2018-09-06T11:32:34.972Z,4.47
2018-09-06T11:35:02.868Z,5.17
2018-09-06T11:37:30.654Z,5.03
2018-09-06T11:39:58.874Z,6.83
2018-09-06T11:42:26.535Z,5.47
2018-09-06T11:44:54.255Z,7.10
2018-09-06T11:47:22.134Z,5.30
2018-09-06T11:49:49.762Z,5.30
2018-09-06T11:52:17.741Z,6.27
2018-09-06T11:54:45.504Z,4.53
2018-09-06T11:57:13.339Z,4.80
2018-09-06T11:59:41.263Z,5.37
2018-09-06T12:02:09.084Z,7.70
2018-09-06T12:04:37.176Z,8.67
2018-09-06T12:07:05.194Z,5.73
2018-09-06T12:09:32.879Z,6.77
2018-09-06T12:12:00.872Z,7.83
2018-09-06T12:14:28.603Z,6.00
2018-09-06T12:16:56.339Z,9.70
2018-09-06T12:19:24.046Z,5.00
2018-09-06T12:21:51.874Z,5.47
2018-09-06T12:24:19.648Z,5.80
2018-09-06T12:26:47.466Z,6.63
2018-09-06T12:29:15.239Z,6.23
2018-09-06T12:31:43.272Z,8.20
2018-09-06T12:34:11.978Z,5.97
2018-09-06T12:36:42.068Z,5.73
2018-09-06T12:41:49.227Z,7.07
2018-09-06T12:44:20.288Z,8.23
2018-09-06T12:46:48.199Z,6.33
2018-09-06T12:49:15.924Z,7.00
2018-09-06T12:51:49.990Z,7.50
2018-09-06T12:54:18.308Z,7.33
2018-09-06T12:56:46.036Z,6.73
2018-09-06T12:59:13.736Z,6.30
2018-09-06T13:01:41.514Z,7.30
2018-09-06T13:04:09.354Z,5.47
2018-09-06T13:06:37.079Z,6.47
2018-09-06T13:09:05.995Z,5.93
2018-09-06T13:11:34.089Z,5.97
2018-09-06T13:14:01.852Z,6.47
2018-09-06T13:16:29.580Z,5.90
2018-09-06T13:18:57.599Z,6.23
2018-09-06T13:21:25.296Z,6.13
2018-09-06T13:23:52.964Z,6.10
2018-09-06T13:26:20.689Z,5.77
2018-09-06T13:28:48.511Z,6.27
2018-09-06T13:31:16.341Z,7.20
2018-09-06T13:33:44.787Z,6.00
2018-09-06T13:36:12.619Z,5.80
2018-09-06T13:38:40.303Z,5.97
2018-09-06T13:41:08.196Z,5.47
2018-09-06T13:43:35.918Z,8.17
2018-09-06T13:46:03.666Z,8.10
2018-09-06T13:48:31.318Z,5.30
2018-09-06T13:50:59.019Z,5.33
2018-09-06T13:53:26.711Z,8.03
2018-09-06T13:55:54.433Z,9.03
2018-09-06T13:58:22.183Z,6.60
2018-09-06T14:00:50.243Z,7.67
2018-09-06T14:03:18.119Z,6.00
2018-09-06T14:05:46.601Z,4.20
2018-09-06T14:08:14.363Z,5.83
2018-09-06T14:10:42.079Z,6.60
2018-09-06T14:13:10.013Z,5.63
2018-09-06T14:15:37.691Z,8.97
2018-09-06T14:18:05.675Z,7.17
2018-09-06T14:20:33.423Z,11.70
2018-09-06T14:23:01.235Z,6.77
2018-09-06T14:25:32.952Z,7.70
2018-09-06T14:28:01.767Z,5.83
2018-09-06T14:30:29.495Z,6.47
2018-09-06T14:32:57.212Z,5.93
2018-09-06T14:35:24.931Z,4.70
2018-09-06T14:37:52.714Z,5.17
2018-09-06T14:40:20.442Z,5.13
2018-09-06T14:42:49.272Z,6.13
2018-09-06T14:45:17.005Z,7.90
2018-09-06T14:47:45.023Z,4.63
2018-09-06T14:50:12.779Z,4.73
2018-09-06T14:52:40.452Z,5.67
2018-09-06T14:55:08.174Z,6.40
2018-09-06T14:57:36.415Z,6.70
2018-09-06T15:00:04.337Z,6.30
2018-09-06T15:02:32.019Z,5.53
2018-09-06T15:04:59.743Z,4.27
2018-09-06T15:07:27.523Z,3.77
2018-09-06T15:09:55.202Z,5.93
2018-09-06T15:12:22.951Z,5.07
2018-09-06T15:14:50.711Z,5.70
2018-09-06T15:17:18.466Z,6.53
2018-09-06T15:19:46.168Z,5.13
2018-09-06T15:22:13.960Z,4.07
2018-09-06T15:24:41.952Z,4.50
2018-09-06T15:27:09.677Z,4.27
2018-09-06T15:29:37.396Z,3.90
2018-09-06T15:32:10.864Z,4.90
2018-09-06T15:34:38.697Z,4.67
2018-09-06T15:37:06.423Z,5.30
2018-09-06T15:39:34.417Z,4.40
2018-09-06T15:42:02.227Z,3.57
2018-09-06T15:44:30.096Z,3.50
2018-09-06T15:46:57.773Z,4.40
2018-09-06T15:49:25.515Z,4.37
2018-09-06T15:51:53.360Z,3.53
2018-09-06T15:54:21.076Z,3.77
2018-09-06T15:56:48.917Z,3.60
2018-09-06T15:59:16.823Z,3.50
2018-09-06T16:01:44.850Z,3.27
2018-09-06T16:04:12.597Z,3.30
2018-09-06T16:06:40.359Z,3.93
2018-09-06T16:09:08.048Z,4.57
2018-09-06T16:11:35.801Z,3.70
2018-09-06T16:14:03.586Z,4.30
2018-09-06T16:16:31.367Z,4.20
2018-09-06T16:18:59.051Z,3.63
2018-09-06T16:21:26.703Z,3.70
2018-09-06T16:23:54.367Z,4.93
2018-09-06T16:26:22.065Z,4.40
2018-09-06T16:28:49.745Z,4.90
2018-09-06T16:31:17.479Z,3.77
2018-09-06T16:33:45.307Z,4.47
2018-09-06T16:36:13.191Z,4.03
2018-09-06T16:38:40.992Z,4.80
2018-09-06T16:41:08.691Z,3.90
2018-09-06T16:43:36.604Z,4.70
2018-09-06T16:46:04.263Z,6.63
2018-09-06T16:48:32.125Z,5.13
2018-09-06T16:50:59.899Z,5.23
2018-09-06T16:53:27.616Z,5.27
2018-09-06T16:55:55.827Z,5.87
2018-09-06T16:58:23.631Z,6.20
2018-09-06T17:00:51.528Z,6.20
2018-09-06T17:03:19.265Z,5.37
2018-09-06T17:05:47.012Z,5.83
2018-09-06T17:08:14.783Z,6.43
2018-09-06T17:10:42.464Z,6.50
2018-09-06T17:13:13.792Z,9.83
2018-09-06T17:15:41.509Z,8.30
2018-09-06T17:18:09.267Z,6.93
2018-09-06T17:20:36.991Z,6.67
2018-09-06T17:23:04.752Z,8.43
2018-09-06T17:28:07.232Z,7.70
2018-09-06T17:30:35.774Z,8.40
2018-09-06T17:33:03.543Z,6.47
2018-09-06T17:35:31.170Z,5.70
2018-09-06T17:37:58.838Z,6.03
2018-09-06T17:40:26.711Z,3.20
2018-09-06T17:42:54.568Z,6.83
2018-09-06T17:45:22.232Z,6.60
2018-09-06T17:47:50.167Z,6.50
2018-09-06T17:50:17.893Z,5.67
2018-09-06T17:52:45.664Z,9.23
2018-09-06T17:55:13.463Z,8.87
2018-09-06T17:57:41.169Z,9.33
2018-09-06T18:00:09.021Z,6.77
2018-09-06T18:02:36.748Z,8.63
2018-09-06T18:05:04.739Z,8.00
2018-09-06T18:07:32.439Z,10.10
2018-09-06T18:10:00.282Z,6.13
2018-09-06T18:12:28.100Z,9.77
2018-09-06T18:14:56.077Z,8.20
2018-09-06T18:17:24.547Z,7.30
2018-09-06T18:19:52.448Z,6.43
2018-09-06T18:22:20.297Z,6.00
2018-09-06T18:24:51.620Z,4.90
2018-09-06T18:27:19.356Z,5.90
2018-09-06T18:29:47.378Z,4.63
2018-09-06T18:32:15.100Z,5.27
2018-09-06T18:34:42.880Z,7.50
2018-09-06T18:37:10.782Z,9.37
2018-09-06T18:39:38.651Z,6.10
2018-09-06T18:42:06.377Z,7.13
2018-09-06T18:44:34.172Z,5.30
2018-09-06T18:47:02.339Z,7.20
2018-09-06T18:49:30.131Z,5.43
2018-09-06T18:51:57.945Z,6.00
2018-09-06T18:54:32.865Z,6.43
2018-09-06T18:57:00.843Z,6.87
2018-09-06T18:59:28.623Z,7.13
2018-09-06T19:01:56.386Z,9.17
2018-09-06T19:04:24.050Z,6.97
2018-09-06T19:06:52.012Z,5.93
2018-09-06T19:09:19.880Z,7.63
2018-09-06T19:11:47.811Z,7.07
2018-09-06T19:14:16.117Z,8.40
2018-09-06T19:16:43.984Z,8.03
2018-09-06T19:19:11.819Z,6.97
2018-09-06T19:21:39.647Z,5.43
2018-09-06T19:24:07.438Z,6.33
2018-09-06T19:26:35.240Z,7.47
2018-09-06T19:29:03.116Z,7.17
2018-09-06T19:31:30.901Z,10.97
2018-09-06T19:33:59.108Z,7.23
2018-09-06T19:36:26.919Z,9.57
2018-09-06T19:38:55.033Z,7.00
2018-09-06T19:41:22.751Z,8.67
2018-09-06T19:43:50.412Z,7.80
2018-09-06T19:46:18.164Z,10.20
2018-09-06T19:48:45.923Z,11.00
2018-09-06T19:51:13.588Z,8.40
2018-09-06T19:53:44.825Z,7.87
2018-09-06T19:56:12.587Z,7.37
2018-09-06T19:58:40.472Z,8.13
2018-09-06T20:01:08.234Z,7.03
2018-09-06T20:03:36.005Z,9.13
2018-09-06T20:06:03.901Z,10.30
2018-09-06T20:08:31.607Z,9.40
2018-09-06T20:10:59.351Z,8.83
2018-09-06T20:13:27.005Z,10.97
2018-09-06T20:15:55.062Z,7.30
2018-09-06T20:18:22.843Z,6.30
2018-09-06T20:20:50.710Z,8.13
2018-09-06T20:23:18.403Z,7.50
2018-09-06T20:25:47.179Z,8.83
2018-09-06T20:28:16.294Z,8.70
2018-09-06T20:30:43.893Z,8.47
2018-09-06T20:33:12.313Z,6.67
2018-09-06T20:35:40.264Z,8.43
2018-09-06T20:38:07.994Z,10.07
2018-09-06T20:40:36.769Z,8.13
2018-09-06T20:43:04.815Z,7.77
2018-09-06T20:45:32.543Z,9.53
2018-09-06T20:48:00.279Z,9.17
2018-09-06T20:50:28.643Z,7.23
2018-09-06T20:52:57.052Z,7.90
2018-09-06T20:55:24.855Z,8.37
2018-09-06T20:57:52.589Z,10.57
2018-09-06T21:00:20.322Z,9.83
2018-09-06T21:02:48.041Z,9.67
2018-09-06T21:05:16.040Z,9.27
2018-09-06T21:07:43.783Z,9.83
2018-09-06T21:10:11.484Z,10.07
2018-09-06T21:12:39.211Z,15.17
2018-09-06T21:15:06.963Z,14.67
2018-09-06T21:17:34.672Z,20.20
2018-09-06T21:20:02.925Z,23.33
2018-09-06T21:22:30.691Z,19.57
2018-09-06T21:24:58.540Z,12.33
2018-09-06T21:27:26.202Z,18.50
2018-09-06T21:29:53.955Z,18.37
2018-09-06T21:32:21.589Z,18.23
2018-09-06T21:34:49.299Z,15.83
2018-09-06T21:37:17.071Z,14.57
2018-09-06T21:39:44.783Z,13.00
2018-09-06T21:42:12.511Z,13.53
2018-09-06T21:44:40.187Z,16.70
2018-09-06T21:47:07.896Z,17.00
2018-09-06T21:49:36.483Z,13.87
2018-09-06T21:52:04.424Z,15.20
2018-09-06T21:54:32.144Z,16.83
2018-09-06T21:56:59.847Z,22.90
2018-09-06T21:59:27.647Z,13.97
2018-09-06T22:01:55.327Z,16.40
2018-09-06T22:04:23.006Z,20.23
2018-09-06T22:06:50.707Z,22.63
2018-09-06T22:09:18.390Z,15.67
2018-09-06T22:11:46.159Z,16.10
2018-09-06T22:14:13.878Z,22.23
2018-09-06T22:16:41.650Z,16.70
2018-09-06T22:19:09.373Z,16.40
2018-09-06T22:21:37.298Z,13.83
2018-09-06T22:24:05.063Z,12.97
2018-09-06T22:26:32.750Z,15.03
2018-09-06T22:29:00.427Z,16.13
2018-09-06T22:31:28.131Z,18.87
2018-09-06T22:33:55.824Z,14.70
2018-09-06T22:36:23.524Z,14.37
2018-09-06T22:38:51.219Z,14.27
2018-09-06T22:41:19.023Z,13.03
2018-09-06T22:43:46.906Z,11.93
2018-09-06T22:46:15.597Z,11.13
2018-09-06T22:48:43.414Z,11.80
2018-09-06T22:51:11.040Z,14.67
2018-09-06T22:53:38.763Z,11.13
2018-09-06T22:56:06.463Z,14.80
2018-09-06T22:58:34.238Z,10.93
2018-09-06T23:01:01.925Z,12.50
2018-09-06T23:03:35.351Z,12.30
2018-09-06T23:06:03.048Z,13.23
2018-09-06T23:08:30.800Z,13.43
2018-09-06T23:10:58.499Z,13.70
2018-09-06T23:13:26.211Z,12.87
2018-09-06T23:15:53.900Z,12.20
2018-09-06T23:18:21.621Z,13.40
2018-09-06T23:20:49.497Z,13.17
2018-09-06T23:23:17.697Z,12.87
2018-09-06T23:25:45.432Z,13.60
2018-09-06T23:28:13.155Z,12.67
2018-09-06T23:30:41.409Z,13.13
2018-09-06T23:33:09.171Z,13.53
2018-09-06T23:35:36.879Z,11.13
2018-09-06T23:38:04.667Z,13.90
2018-09-06T23:40:36.938Z,12.87
2018-09-06T23:43:04.639Z,12.67
2018-09-06T23:45:32.347Z,10.60
2018-09-06T23:48:00.059Z,10.70
2018-09-06T23:50:27.815Z,9.50
2018-09-06T23:52:55.592Z,12.53
2018-09-06T23:55:23.263Z,11.17
2018-09-06T23:57:51.187Z,10.40
